Burnside, Louisiana
Current Conditions -  °F | °C
As of 9:55 PM on Thursday 18 Dec 2014 (Local Time) from KL38 Reporting Station
Overcast Overcast  
Wind Chill: 59°   Ceiling: 1800
Heat Index: 59°   Visibility: 10mi
Dew Point: 58°   Wind: 6mph
Humidity: 96%   Direction: 80°E
Pressure: 30.13"   Gusts: NA
Location:  30.14°N, 90.92°W
Report Text: KL38 190355Z AUTO 08005KT 10SM OVC018 15/14 A3013 RMK AO2 LTG DSNT W T01480142
Loading
Personal Weather Stations






























Interactive Weather Map New forecast layout! Learn more

10-Day Weather Forecast

Advertisements
Track Severe Weather on mobile